Time;durP1;ratioP1;P1;durP2;ratioP2;P2;SDS_P1;SDS_P2;PMS_P1;PMS_P2;Temp;Humidity;BMP_temperature;BMP_pressure;BME280_temperature;BME280_humidity;BME280_pressure;Samples;Min_cycle;Max_cycle;Signal;HPM_P1;HPM_P2
2022/12/31 00:00:06;;;;;;;3.03;1.65;;;;;;;10.00;100.00;98067.69;2602447;28;20045;-91
2022/12/31 00:01:23;;;;;;;3.25;1.63;;;;;;;9.77;100.00;98057.94;2603581;28;20923;-89
2022/12/31 00:02:39;;;;;;;3.78;1.80;;;;;;;9.97;100.00;98056.44;2603764;28;20557;-88
2022/12/31 00:03:55;;;;;;;3.30;2.05;;;;;;;9.99;100.00;98062.50;2601224;28;20053;-88
2022/12/31 00:05:12;;;;;;;3.10;1.60;;;;;;;9.78;100.00;98059.66;2603472;28;20049;-88
2022/12/31 00:06:31;;;;;;;3.15;1.60;;;;;;;9.95;100.00;98051.28;2601302;28;20132;-87
2022/12/31 00:07:47;;;;;;;3.72;1.60;;;;;;;10.05;100.00;98059.69;2600838;28;20049;-88
2022/12/31 00:09:04;;;;;;;2.05;1.40;;;;;;;10.05;100.00;98064.91;2601122;28;20084;-88
2022/12/31 00:10:20;;;;;;;5.10;1.90;;;;;;;10.10;100.00;98054.31;2602542;28;20517;-88
2022/12/31 00:11:36;;;;;;;4.38;2.20;;;;;;;10.11;100.00;98058.63;2602528;28;20132;-87
2022/12/31 00:12:52;;;;;;;2.90;1.58;;;;;;;9.83;100.00;98062.13;2602674;28;20081;-88
2022/12/31 00:14:08;;;;;;;4.18;1.85;;;;;;;9.81;100.00;98063.94;2602247;28;20052;-88
2022/12/31 00:15:23;;;;;;;5.25;1.70;;;;;;;9.94;100.00;98056.56;2602865;28;20049;-88
2022/12/31 00:16:40;;;;;;;4.82;2.03;;;;;;;9.85;100.00;98068.16;2599873;28;20049;-88
2022/12/31 00:17:56;;;;;;;5.80;2.03;;;;;;;10.05;100.00;98070.16;2600855;28;20044;-87
2022/12/31 00:19:12;;;;;;;5.47;2.00;;;;;;;10.26;100.00;98067.72;2601267;28;20045;-87
2022/12/31 00:20:27;;;;;;;8.20;2.70;;;;;;;10.00;100.00;98078.13;2602774;28;20052;-89
2022/12/31 00:21:43;;;;;;;3.53;1.90;;;;;;;10.04;100.00;98082.34;2604136;28;20171;-88
2022/12/31 00:22:59;;;;;;;4.32;1.95;;;;;;;10.10;100.00;98085.69;2601544;28;20354;-88
2022/12/31 00:24:14;;;;;;;4.32;1.70;;;;;;;10.27;100.00;98077.31;2602677;28;20049;-89
2022/12/31 00:25:30;;;;;;;3.40;1.45;;;;;;;10.46;100.00;98072.34;2603165;28;20057;-88
2022/12/31 00:26:46;;;;;;;2.00;1.38;;;;;;;10.46;100.00;98088.03;2601970;28;20505;-88
2022/12/31 00:28:03;;;;;;;3.05;1.70;;;;;;;10.24;100.00;98078.25;2601547;28;20053;-87
2022/12/31 00:29:19;;;;;;;3.50;1.80;;;;;;;9.77;100.00;98078.84;2602825;28;20508;-91
2022/12/31 00:30:34;;;;;;;4.07;1.90;;;;;;;10.12;100.00;98076.88;2602138;28;20049;-88
2022/12/31 00:31:50;;;;;;;3.47;1.63;;;;;;;10.37;100.00;98081.31;2600834;28;20045;-87
2022/12/31 00:33:05;;;;;;;4.35;1.70;;;;;;;9.99;100.00;98078.22;2602624;28;20049;-88
2022/12/31 00:34:21;;;;;;;2.15;1.48;;;;;;;10.02;100.00;98088.56;2600883;28;20056;-87
2022/12/31 00:35:37;;;;;;;4.47;1.52;;;;;;;9.84;100.00;98082.13;2603418;28;20045;-87
2022/12/31 00:36:53;;;;;;;3.60;1.33;;;;;;;10.03;100.00;98082.44;2603220;28;20140;-88
2022/12/31 00:38:08;;;;;;;2.35;1.33;;;;;;;9.91;100.00;98090.66;2601769;28;20053;-88
2022/12/31 00:39:24;;;;;;;2.88;1.63;;;;;;;10.09;100.00;98091.84;2601562;28;20050;-87
2022/12/31 00:40:39;;;;;;;3.60;1.58;;;;;;;10.22;100.00;98087.06;2602424;28;20159;-88
2022/12/31 00:41:55;;;;;;;3.47;1.50;;;;;;;10.23;100.00;98089.63;2601199;28;20108;-87
2022/12/31 00:43:11;;;;;;;2.80;1.77;;;;;;;10.52;100.00;98093.09;2602848;28;20053;-88
2022/12/31 00:44:26;;;;;;;4.45;1.40;;;;;;;10.42;100.00;98096.91;2602021;28;20049;-87
2022/12/31 00:45:42;;;;;;;3.75;1.50;;;;;;;10.55;100.00;98098.22;2601612;28;20500;-87
2022/12/31 00:46:57;;;;;;;3.92;1.40;;;;;;;10.15;100.00;98099.47;2602763;28;20385;-87
2022/12/31 00:48:13;;;;;;;2.38;1.40;;;;;;;10.52;100.00;98100.94;2601743;28;20053;-87
2022/12/31 00:49:28;;;;;;;3.45;1.40;;;;;;;10.79;100.00;98111.38;2602575;28;20061;-90
2022/12/31 00:50:45;;;;;;;2.10;1.20;;;;;;;10.17;100.00;98110.75;2601765;28;20053;-88
2022/12/31 00:52:00;;;;;;;2.13;1.50;;;;;;;10.24;100.00;98107.03;2601948;28;20068;-88
2022/12/31 00:53:16;;;;;;;2.50;1.30;;;;;;;10.68;100.00;98108.28;2602025;28;20440;-88
2022/12/31 00:54:32;;;;;;;2.88;1.48;;;;;;;10.69;100.00;98108.25;2602350;28;20059;-88
2022/12/31 00:55:48;;;;;;;2.08;1.30;;;;;;;10.66;100.00;98110.09;2602760;28;20057;-88
2022/12/31 00:57:04;;;;;;;1.67;1.17;;;;;;;10.59;100.00;98104.22;2602582;28;20053;-88
2022/12/31 00:58:19;;;;;;;2.22;1.33;;;;;;;9.82;100.00;98103.09;2600598;28;20060;-88
2022/12/31 00:59:34;;;;;;;2.00;1.30;;;;;;;9.88;100.00;98105.53;2601917;28;20060;-88
2022/12/31 01:00:50;;;;;;;1.73;1.15;;;;;;;10.25;100.00;98100.91;2602556;28;20469;-87
2022/12/31 01:02:06;;;;;;;1.80;1.20;;;;;;;10.54;100.00;98106.97;2600641;28;20439;-88
2022/12/31 01:03:22;;;;;;;2.42;1.10;;;;;;;10.48;100.00;98112.44;2600615;28;20050;-87
2022/12/31 01:04:38;;;;;;;2.70;0.90;;;;;;;10.77;100.00;98117.59;2596868;28;20053;-88
2022/12/31 01:05:58;;;;;;;1.60;1.00;;;;;;;10.57;100.00;98119.97;2601283;28;20488;-89
2022/12/31 01:07:13;;;;;;;2.03;1.15;;;;;;;10.09;100.00;98121.47;2600841;28;20054;-87
2022/12/31 01:08:29;;;;;;;2.75;1.17;;;;;;;10.44;100.00;98123.88;2601076;28;20049;-88
2022/12/31 01:09:44;;;;;;;1.17;0.90;;;;;;;10.67;100.00;98128.34;2600180;28;20049;-87
2022/12/31 01:11:20;;;;;;;1.80;1.05;;;;;;;10.76;100.00;98129.84;2602014;28;20065;-88
2022/12/31 01:12:36;;;;;;;2.10;1.10;;;;;;;10.45;100.00;98120.34;2596440;28;20617;-89
2022/12/31 01:14:01;;;;;;;1.73;1.05;;;;;;;10.71;100.00;98122.13;2601767;28;20071;-87
2022/12/31 01:15:16;;;;;;;1.75;1.10;;;;;;;10.60;100.00;98121.63;2600194;28;20057;-87
2022/12/31 01:16:41;;;;;;;1.10;0.95;;;;;;;10.91;100.00;98127.59;2602453;28;20176;-89
2022/12/31 01:17:56;;;;;;;4.03;1.33;;;;;;;10.98;100.00;98126.47;2596815;28;20096;-88
2022/12/31 01:19:17;;;;;;;2.25;1.08;;;;;;;10.98;100.00;98139.56;2600404;28;20072;-87
2022/12/31 01:20:39;;;;;;;1.35;1.00;;;;;;;10.58;100.00;98140.00;2601773;28;20041;-87
2022/12/31 01:21:55;;;;;;;2.80;1.15;;;;;;;10.77;100.00;98138.53;2600708;28;20510;-88
2022/12/31 01:23:11;;;;;;;3.33;1.20;;;;;;;10.97;100.00;98150.94;2599614;28;20053;-87
2022/12/31 01:24:26;;;;;;;1.67;1.10;;;;;;;10.86;100.00;98152.16;2601773;28;20048;-89
2022/12/31 01:25:42;;;;;;;2.05;0.90;;;;;;;10.86;100.00;98151.31;2601445;28;20048;-87
2022/12/31 01:26:58;;;;;;;2.50;1.00;;;;;;;10.52;100.00;98150.69;2601993;28;20049;-88
2022/12/31 01:28:13;;;;;;;4.13;1.95;;;;;;;10.56;100.00;98157.50;2600273;28;20049;-88
2022/12/31 01:29:29;;;;;;;3.38;1.80;;;;;;;10.76;100.00;98156.03;2600017;28;20060;-88
2022/12/31 01:30:45;;;;;;;3.13;1.70;;;;;;;10.92;100.00;98155.50;2601353;28;20052;-88
2022/12/31 01:32:01;;;;;;;2.83;1.58;;;;;;;10.83;100.00;98157.50;2600164;28;20054;-87
2022/12/31 01:33:17;;;;;;;3.72;1.85;;;;;;;10.48;100.00;98161.28;2603444;28;20068;-90
2022/12/31 01:34:32;;;;;;;2.92;1.42;;;;;;;10.60;100.00;98160.91;2601333;28;20098;-90
2022/12/31 01:35:48;;;;;;;2.20;1.55;;;;;;;10.91;100.00;98157.25;2601907;28;20080;-88
2022/12/31 01:37:03;;;;;;;2.65;1.45;;;;;;;10.67;100.00;98156.31;2600508;28;20049;-87
2022/12/31 01:38:19;;;;;;;4.18;2.13;;;;;;;10.41;100.00;98152.78;2599984;28;20084;-88
2022/12/31 01:39:35;;;;;;;2.88;1.85;;;;;;;10.44;100.00;98163.13;2600852;28;20103;-87
2022/12/31 01:40:50;;;;;;;4.65;1.63;;;;;;;10.35;100.00;98161.66;2600646;28;20803;-87
2022/12/31 01:42:10;;;;;;;3.83;1.50;;;;;;;10.65;100.00;98165.97;2600749;28;20056;-87
2022/12/31 01:43:52;;;;;;;3.20;1.77;;;;;;;10.89;100.00;98169.53;2601700;28;20131;-88
2022/12/31 01:45:12;;;;;;;2.17;1.42;;;;;;;10.92;100.00;98165.97;2602973;28;20056;-89
2022/12/31 01:46:31;;;;;;;2.13;1.50;;;;;;;10.95;100.00;98168.47;2599944;28;20051;-88
2022/12/31 01:47:50;;;;;;;2.25;1.30;;;;;;;11.03;100.00;98163.81;2603063;28;20519;-87
2022/12/31 01:49:20;;;;;;;3.22;1.27;;;;;;;10.83;100.00;98173.22;2601746;28;20107;-88
2022/12/31 01:50:38;;;;;;;2.42;1.15;;;;;;;11.01;100.00;98170.88;2600632;28;20382;-88
2022/12/31 01:52:26;;;;;;;2.15;1.30;;;;;;;10.98;100.00;98176.22;2602594;28;20072;-89
2022/12/31 01:53:42;;;;;;;2.38;1.30;;;;;;;11.02;100.00;98175.22;2604786;28;20551;-88
2022/12/31 01:55:11;;;;;;;1.75;1.13;;;;;;;11.00;100.00;98177.91;2600327;28;20060;-88
2022/12/31 01:56:27;;;;;;;1.98;1.38;;;;;;;11.07;100.00;98183.78;2602322;28;20077;-87
2022/12/31 01:57:45;;;;;;;1.52;1.30;;;;;;;10.68;100.00;98168.50;2602654;28;20049;-90
2022/12/31 01:59:05;;;;;;;1.70;1.20;;;;;;;10.61;100.00;98183.53;2599490;28;20076;-87
2022/12/31 02:00:21;;;;;;;2.38;1.50;;;;;;;10.88;100.00;98173.91;2599804;28;20713;-89
2022/12/31 02:01:37;;;;;;;1.85;1.30;;;;;;;11.01;100.00;98179.59;2601893;28;20076;-87
2022/12/31 02:02:53;;;;;;;2.40;1.40;;;;;;;11.00;100.00;98170.03;2601165;28;20045;-88
2022/12/31 02:04:12;;;;;;;2.38;1.30;;;;;;;10.73;100.00;98184.91;2600108;28;20056;-90
2022/12/31 02:05:35;;;;;;;2.40;1.45;;;;;;;11.07;100.00;98180.28;2600418;28;20167;-88
2022/12/31 02:06:56;;;;;;;1.73;1.20;;;;;;;11.02;100.00;98181.31;2599990;28;20064;-87
2022/12/31 02:08:11;;;;;;;1.45;1.20;;;;;;;11.19;100.00;98187.75;2600010;28;20053;-89
2022/12/31 02:09:27;;;;;;;2.85;1.55;;;;;;;11.33;100.00;98171.53;2602838;28;20081;-88
2022/12/31 02:10:43;;;;;;;3.17;1.27;;;;;;;11.21;100.00;98179.84;2596326;28;20053;-87
2022/12/31 02:11:59;;;;;;;1.77;1.27;;;;;;;11.27;100.00;98177.00;2601071;28;20569;-90
2022/12/31 02:13:14;;;;;;;2.03;1.15;;;;;;;11.12;100.00;98181.84;2601800;28;21083;-87
2022/12/31 02:14:46;;;;;;;1.73;1.25;;;;;;;11.35;100.00;98188.06;2602624;28;20476;-88
2022/12/31 02:16:14;;;;;;;2.60;1.45;;;;;;;11.34;100.00;98195.97;2601460;28;20076;-87
2022/12/31 02:17:56;;;;;;;2.75;1.63;;;;;;;11.34;100.00;98183.75;2599555;28;20049;-88
2022/12/31 02:19:28;;;;;;;2.25;1.20;;;;;;;11.49;100.00;98200.66;2601335;28;20053;-88
2022/12/31 02:21:08;;;;;;;1.45;1.10;;;;;;;11.62;100.00;98198.47;2600762;28;20042;-87
2022/12/31 02:23:01;;;;;;;3.15;1.60;;;;;;;11.39;100.00;98204.56;2600874;28;20526;-87
2022/12/31 02:24:42;;;;;;;2.22;1.23;;;;;;;11.48;100.00;98204.19;2600825;28;20199;-88
2022/12/31 02:26:25;;;;;;;2.50;1.48;;;;;;;11.56;100.00;98212.66;2600885;28;20500;-87
2022/12/31 02:28:18;;;;;;;2.60;1.40;;;;;;;11.57;100.00;98206.50;2600872;28;20057;-87
2022/12/31 02:30:10;;;;;;;3.45;1.60;;;;;;;11.36;100.00;98205.50;2600301;28;20814;-87
2022/12/31 02:31:43;;;;;;;3.05;1.48;;;;;;;11.53;100.00;98204.91;2601334;28;20057;-92
2022/12/31 02:33:12;;;;;;;4.45;1.77;;;;;;;11.68;100.00;98200.88;2601838;28;20482;-87
2022/12/31 02:34:45;;;;;;;2.80;1.60;;;;;;;11.43;100.00;98200.91;2602040;28;20053;-88
2022/12/31 02:36:14;;;;;;;2.40;1.17;;;;;;;11.58;100.00;98194.25;2599855;28;20440;-88
2022/12/31 02:37:32;;;;;;;4.88;1.67;;;;;;;11.78;100.00;98208.41;2600575;28;20072;-87
2022/12/31 02:38:49;;;;;;;3.53;1.73;;;;;;;11.80;100.00;98196.09;2599133;28;20558;-90
2022/12/31 02:40:08;;;;;;;3.60;1.48;;;;;;;11.54;100.00;98184.78;2599357;28;20201;-87
2022/12/31 02:42:58;;;;;;;2.03;1.40;;;;;;;11.61;100.00;98196.78;2601726;28;20122;-88
2022/12/31 02:44:23;;;;;;;2.72;1.52;;;;;;;11.60;100.00;98192.44;2599580;28;20190;-87
2022/12/31 02:45:50;;;;;;;3.88;1.48;;;;;;;11.38;100.00;98190.56;2600953;28;20049;-88
2022/12/31 02:47:09;;;;;;;3.63;1.52;;;;;;;11.63;100.00;98200.19;2599871;28;20053;-87
2022/12/31 02:48:53;;;;;;;4.05;1.50;;;;;;;11.58;100.00;98194.25;2600959;28;20080;-87
2022/12/31 02:50:26;;;;;;;2.53;1.50;;;;;;;11.73;100.00;98188.47;2602796;28;20061;-87
2022/12/31 02:51:51;;;;;;;3.47;1.60;;;;;;;11.56;100.00;98196.06;2598590;28;20057;-88
2022/12/31 02:53:43;;;;;;;3.72;1.75;;;;;;;11.73;100.00;98187.59;2601064;28;20058;-88
2022/12/31 02:55:08;;;;;;;4.27;1.53;;;;;;;11.73;100.00;98190.22;2601605;28;20087;-87
2022/12/31 02:56:27;;;;;;;2.97;1.42;;;;;;;11.69;100.00;98188.63;2599545;28;20473;-87
2022/12/31 02:58:07;;;;;;;7.55;2.55;;;;;;;11.58;100.00;98186.38;2600909;28;20138;-87
2022/12/31 03:03:09;;;;;;;4.90;1.70;;;;;;;11.75;100.00;98185.75;2599894;28;20643;-87
2022/12/31 03:04:31;;;;;;;5.13;1.90;;;;;;;11.85;100.00;98178.41;2600372;28;20584;-88
2022/12/31 03:05:48;;;;;;;5.75;2.15;;;;;;;11.66;100.00;98175.59;2601250;28;20530;-87
2022/12/31 03:07:13;;;;;;;6.70;1.95;;;;;;;11.92;100.00;98172.03;2600853;28;20164;-89
2022/12/31 03:08:29;;;;;;;4.38;1.80;;;;;;;11.79;100.00;98168.16;2599971;28;20079;-90
2022/12/31 03:09:44;;;;;;;6.55;2.00;;;;;;;11.58;100.00;98178.50;2601756;28;20053;-91
2022/12/31 03:12:44;;;;;;;5.63;1.95;;;;;;;11.71;100.00;98168.44;2602393;28;20269;-91
2022/12/31 03:12:48;;;;;;;7.28;2.85;;;;;;;11.60;100.00;98163.59;2599448;28;20084;-87
2022/12/31 03:14:04;;;;;;;4.65;2.10;;;;;;;11.54;100.00;98176.91;2601572;28;20047;-88
2022/12/31 03:15:26;;;;;;;7.88;2.95;;;;;;;11.67;100.00;98159.81;2600431;28;20053;-87
2022/12/31 03:16:41;;;;;;;6.30;2.33;;;;;;;11.51;100.00;98167.38;2600348;28;20491;-87
2022/12/31 03:18:13;;;;;;;7.38;2.88;;;;;;;11.65;100.00;98166.91;2600669;28;20080;-87
2022/12/31 03:22:40;;;;;;;4.60;2.20;;;;;;;11.72;100.00;98164.91;2596813;28;20061;-87
2022/12/31 03:25:48;;;;;;;3.30;1.52;;;;;;;11.77;100.00;98176.06;2596088;28;20056;-87
2022/12/31 03:27:03;;;;;;;2.35;1.20;;;;;;;11.65;100.00;98176.50;2601200;28;20408;-87
2022/12/31 03:28:21;;;;;;;1.90;1.40;;;;;;;11.58;100.00;98163.66;2596071;28;20049;-87
2022/12/31 03:29:37;;;;;;;1.40;1.00;;;;;;;11.65;100.00;98169.53;2600914;28;20095;-87
2022/12/31 03:31:00;;;;;;;2.45;1.25;;;;;;;11.51;100.00;98166.53;2600405;28;20057;-88
2022/12/31 03:32:15;;;;;;;5.13;2.10;;;;;;;11.48;100.00;98161.41;2600860;28;20060;-88
2022/12/31 03:33:35;;;;;;;5.30;2.13;;;;;;;11.48;100.00;98162.25;2601437;28;20049;-87
2022/12/31 03:34:50;;;;;;;5.22;2.00;;;;;;;11.52;100.00;98158.59;2600762;28;20340;-89
2022/12/31 03:36:10;;;;;;;4.65;2.20;;;;;;;11.56;100.00;98160.22;2601757;28;20061;-88
2022/12/31 03:37:26;;;;;;;5.70;2.10;;;;;;;11.52;100.00;98158.59;2603458;28;20052;-91
2022/12/31 03:38:42;;;;;;;7.45;2.30;;;;;;;11.66;100.00;98158.13;2601220;28;20426;-88
2022/12/31 03:39:57;;;;;;;12.50;3.42;;;;;;;11.70;100.00;98153.63;2601259;28;20048;-87
2022/12/31 03:41:13;;;;;;;9.15;2.80;;;;;;;11.57;100.00;98163.69;2601355;28;20053;-89
2022/12/31 03:42:28;;;;;;;8.68;2.35;;;;;;;11.64;100.00;98162.56;2602182;28;20052;-87
2022/12/31 03:43:44;;;;;;;3.42;1.65;;;;;;;11.62;100.00;98167.00;2601866;28;20131;-88
2022/12/31 03:45:00;;;;;;;1.77;1.20;;;;;;;11.58;100.00;98168.88;2602368;28;20057;-87
2022/12/31 03:46:15;;;;;;;3.30;1.25;;;;;;;11.73;100.00;98161.38;2604414;28;20103;-87
2022/12/31 03:47:31;;;;;;;6.50;2.05;;;;;;;11.65;100.00;98174.75;2603058;28;20041;-87
2022/12/31 03:48:47;;;;;;;5.68;2.58;;;;;;;11.73;100.00;98177.97;2603485;28;20109;-87
2022/12/31 03:50:04;;;;;;;4.07;1.67;;;;;;;11.68;100.00;98173.81;2602060;28;20758;-88
2022/12/31 03:51:20;;;;;;;1.73;1.20;;;;;;;11.76;100.00;98178.75;2601194;28;20104;-87
2022/12/31 03:52:36;;;;;;;1.33;1.00;;;;;;;11.75;100.00;98179.69;2597775;28;20053;-87
2022/12/31 03:53:52;;;;;;;1.25;1.10;;;;;;;11.85;100.00;98176.66;2600989;28;20154;-87
2022/12/31 03:55:09;;;;;;;1.20;1.10;;;;;;;11.87;100.00;98172.19;2597540;28;20983;-87
2022/12/31 03:56:24;;;;;;;2.28;1.20;;;;;;;11.97;100.00;98177.09;2603570;28;20083;-87
2022/12/31 03:57:40;;;;;;;2.25;1.30;;;;;;;11.95;100.00;98184.19;2602017;28;20102;-87
2022/12/31 03:58:56;;;;;;;2.65;1.30;;;;;;;12.05;100.00;98179.47;2602054;28;20053;-88
2022/12/31 04:00:16;;;;;;;5.05;1.98;;;;;;;12.02;100.00;98182.22;2602805;28;20045;-87
2022/12/31 04:01:32;;;;;;;6.82;2.22;;;;;;;12.06;100.00;98170.69;2601221;28;20052;-86
2022/12/31 04:02:48;;;;;;;3.92;1.80;;;;;;;12.04;100.00;98169.88;2602467;28;20494;-87
2022/12/31 04:04:04;;;;;;;6.50;2.03;;;;;;;12.01;100.00;98165.56;2597172;28;20093;-89
2022/12/31 04:05:21;;;;;;;5.38;2.03;;;;;;;11.95;100.00;98169.28;2602085;28;20480;-91
2022/12/31 04:06:36;;;;;;;9.85;2.65;;;;;;;11.98;100.00;98163.06;2601438;28;20128;-87
2022/12/31 04:07:52;;;;;;;11.57;3.25;;;;;;;11.93;100.00;98160.63;2601797;28;20052;-87
2022/12/31 04:09:08;;;;;;;13.52;2.75;;;;;;;11.95;100.00;98158.78;2603423;28;20702;-88
2022/12/31 04:10:23;;;;;;;10.63;3.13;;;;;;;11.95;100.00;98158.78;2602563;28;20049;-88
2022/12/31 04:11:39;;;;;;;6.85;1.92;;;;;;;11.96;100.00;98157.88;2599423;28;20098;-87
2022/12/31 04:12:54;;;;;;;2.38;1.33;;;;;;;12.02;100.00;98161.22;2602427;28;20052;-91
2022/12/31 04:14:10;;;;;;;1.30;1.20;;;;;;;12.00;100.00;98158.63;2601726;28;20100;-89
2022/12/31 04:15:26;;;;;;;1.20;1.10;;;;;;;11.98;100.00;98165.69;2601648;28;20532;-88
2022/12/31 04:16:42;;;;;;;1.55;1.10;;;;;;;12.09;100.00;98160.94;2603123;28;20071;-87
2022/12/31 04:17:58;;;;;;;1.20;1.10;;;;;;;12.08;100.00;98164.47;2603641;28;20049;-90
2022/12/31 04:19:14;;;;;;;1.52;1.27;;;;;;;12.15;100.00;98155.44;2601093;28;20843;-87
2022/12/31 04:20:29;;;;;;;2.22;1.30;;;;;;;12.10;100.00;98160.00;2601618;28;20049;-90
2022/12/31 04:21:45;;;;;;;2.72;1.30;;;;;;;12.02;100.00;98172.56;2601900;28;20050;-88
2022/12/31 04:23:00;;;;;;;2.40;1.30;;;;;;;12.12;100.00;98173.06;2603447;28;20053;-89
2022/12/31 04:24:16;;;;;;;1.17;1.08;;;;;;;12.15;100.00;98180.78;2602915;28;20099;-88
2022/12/31 04:25:32;;;;;;;2.78;1.10;;;;;;;12.15;100.00;98180.78;2602273;28;20045;-88
2022/12/31 04:26:47;;;;;;;1.40;1.20;;;;;;;12.12;100.00;98176.53;2602032;28;20393;-87
2022/12/31 04:28:03;;;;;;;1.52;1.20;;;;;;;12.11;100.00;98181.84;2601538;28;20045;-87
2022/12/31 04:29:19;;;;;;;1.48;1.00;;;;;;;12.03;100.00;98183.91;2601855;28;20057;-90
2022/12/31 04:30:35;;;;;;;1.25;1.00;;;;;;;12.08;100.00;98188.09;2597020;28;20070;-89
2022/12/31 04:31:50;;;;;;;1.55;1.20;;;;;;;12.16;100.00;98187.78;2604029;28;20045;-91
2022/12/31 04:33:05;;;;;;;1.30;0.95;;;;;;;12.01;100.00;98181.31;2602777;28;20052;-91
2022/12/31 04:34:21;;;;;;;1.23;1.02;;;;;;;12.07;100.00;98178.47;2601660;28;20493;-88
2022/12/31 04:35:37;;;;;;;0.90;0.90;;;;;;;12.14;100.00;98181.72;2601980;28;20049;-88
2022/12/31 04:36:52;;;;;;;1.33;1.00;;;;;;;12.18;100.00;98179.84;2602270;28;20277;-88
2022/12/31 04:38:08;;;;;;;2.17;1.13;;;;;;;12.32;100.00;98174.06;2601811;28;20068;-88
2022/12/31 04:39:24;;;;;;;1.92;1.20;;;;;;;12.25;100.00;98169.03;2601008;28;20106;-88
2022/12/31 04:41:15;;;;;;;1.23;1.10;;;;;;;12.17;100.00;98175.50;2601631;28;20049;-86
2022/12/31 04:42:15;;;;;;;1.27;1.00;;;;;;;12.33;100.00;98171.34;2601613;28;20542;-85
2022/12/31 04:43:31;;;;;;;1.50;1.15;;;;;;;12.27;100.00;98172.44;2602113;28;20207;-86
2022/12/31 04:44:46;;;;;;;1.20;1.05;;;;;;;12.28;100.00;98174.16;2600900;28;20084;-86
2022/12/31 04:46:02;;;;;;;2.17;1.00;;;;;;;12.23;100.00;98181.38;2600280;28;20072;-85
2022/12/31 04:47:18;;;;;;;3.90;1.23;;;;;;;12.46;100.00;98177.00;2602955;28;20053;-86
2022/12/31 04:48:34;;;;;;;1.45;1.02;;;;;;;12.60;100.00;98178.22;2603469;28;20045;-86
2022/12/31 04:49:50;;;;;;;1.55;1.10;;;;;;;12.47;100.00;98186.56;2602229;28;20818;-86
2022/12/31 04:51:06;;;;;;;1.70;1.10;;;;;;;12.48;100.00;98182.16;2601308;28;20053;-90
2022/12/31 04:52:21;;;;;;;2.50;1.30;;;;;;;12.56;100.00;98186.19;2600498;28;20060;-86
2022/12/31 04:53:37;;;;;;;1.63;1.05;;;;;;;12.52;100.00;98181.97;2601848;28;20072;-86
2022/12/31 04:54:53;;;;;;;1.13;1.02;;;;;;;12.35;100.00;98180.03;2600965;28;20568;-85
2022/12/31 04:56:09;;;;;;;2.33;1.20;;;;;;;12.51;100.00;98176.81;2602386;28;20052;-86
2022/12/31 04:57:24;;;;;;;1.20;0.90;;;;;;;12.35;100.00;98184.44;2602410;28;20053;-86
2022/12/31 04:58:40;;;;;;;2.50;1.10;;;;;;;12.51;100.00;98184.69;2602073;28;20103;-88
2022/12/31 04:59:56;;;;;;;1.80;1.25;;;;;;;12.62;100.00;98192.97;2602671;28;20135;-88
2022/12/31 05:01:12;;;;;;;1.20;1.00;;;;;;;12.41;100.00;98186.81;2602808;28;20420;-87
2022/12/31 05:02:29;;;;;;;1.83;1.00;;;;;;;12.64;100.00;98191.16;2603576;28;20095;-88
2022/12/31 05:03:44;;;;;;;1.23;0.95;;;;;;;12.65;100.00;98194.63;2602409;28;20575;-88
2022/12/31 05:05:00;;;;;;;0.90;0.85;;;;;;;12.67;100.00;98198.03;2602279;28;20128;-88
2022/12/31 05:06:19;;;;;;;1.92;1.10;;;;;;;12.75;100.00;98193.34;2600568;28;20053;-88
2022/12/31 05:07:34;;;;;;;1.98;1.13;;;;;;;12.69;100.00;98197.06;2602855;28;20075;-90
2022/12/31 05:08:50;;;;;;;1.55;1.02;;;;;;;12.68;100.00;98189.25;2602419;28;20106;-88
2022/12/31 05:10:06;;;;;;;2.67;1.73;;;;;;;12.68;100.00;98189.25;2601161;28;20118;-87
2022/12/31 05:11:21;;;;;;;2.85;1.50;;;;;;;12.82;100.00;98186.91;2598060;28;20060;-87
2022/12/31 05:12:37;;;;;;;2.67;1.58;;;;;;;12.78;100.00;98182.69;2597176;28;21005;-86
2022/12/31 05:13:53;;;;;;;3.28;1.60;;;;;;;12.77;100.00;98183.63;2603769;28;20064;-88
2022/12/31 05:15:08;;;;;;;1.85;0.98;;;;;;;12.88;100.00;98185.78;2600910;28;20459;-87
2022/12/31 05:16:24;;;;;;;0.98;0.88;;;;;;;12.88;100.00;98190.22;2600042;28;20526;-88
2022/12/31 05:17:39;;;;;;;1.60;1.02;;;;;;;12.94;100.00;98187.31;2601401;28;20049;-88
2022/12/31 05:18:55;;;;;;;1.77;1.00;;;;;;;12.64;100.00;98195.53;2600933;28;20049;-90
2022/12/31 05:20:11;;;;;;;0.77;0.77;;;;;;;12.74;100.00;98188.13;2601164;28;20133;-87
2022/12/31 05:21:26;;;;;;;1.13;0.90;;;;;;;12.77;100.00;98174.88;2602267;28;20048;-87
2022/12/31 05:22:42;;;;;;;1.10;0.88;;;;;;;12.91;100.00;98180.41;2601469;28;20044;-87
2022/12/31 05:23:57;;;;;;;1.10;0.90;;;;;;;12.93;100.00;98189.09;2602064;28;20056;-87
2022/12/31 05:25:14;;;;;;;0.90;0.90;;;;;;;13.18;100.00;98184.56;2601684;28;20105;-87
2022/12/31 05:26:29;;;;;;;1.35;1.13;;;;;;;12.94;100.00;98176.81;2596785;28;20488;-88
2022/12/31 05:27:45;;;;;;;2.13;1.20;;;;;;;12.90;100.00;98180.47;2602142;28;20415;-89
2022/12/31 05:29:00;;;;;;;2.35;1.48;;;;;;;12.97;100.00;98176.66;2602566;28;20049;-88
2022/12/31 05:30:19;;;;;;;1.98;1.30;;;;;;;12.99;100.00;98172.19;2600791;28;20559;-85
2022/12/31 05:31:34;;;;;;;1.40;1.10;;;;;;;13.00;100.00;98173.94;2602191;28;20045;-86
2022/12/31 05:32:50;;;;;;;1.95;1.10;;;;;;;13.02;100.00;98176.47;2601357;28;20050;-86
2022/12/31 05:34:05;;;;;;;1.10;0.80;;;;;;;13.06;100.00;98176.28;2601214;28;20041;-86
2022/12/31 05:35:21;;;;;;;1.00;0.90;;;;;;;12.98;100.00;98173.13;2600505;28;20065;-86
2022/12/31 05:36:37;;;;;;;1.00;1.00;;;;;;;13.07;100.00;98174.53;2596556;28;20496;-86
2022/12/31 05:37:52;;;;;;;1.33;0.93;;;;;;;12.91;100.00;98169.06;2600225;28;20497;-85
2022/12/31 05:39:08;;;;;;;0.75;0.75;;;;;;;12.78;100.00;98180.06;2601386;28;20051;-88
2022/12/31 05:40:24;;;;;;;1.00;0.75;;;;;;;12.62;100.00;98197.38;2601087;28;20507;-86
2022/12/31 05:41:39;;;;;;;2.15;0.90;;;;;;;12.72;100.00;98193.47;2601377;28;20049;-87
2022/12/31 05:42:55;;;;;;;0.90;0.70;;;;;;;12.76;100.00;98187.16;2601074;28;20053;-88
2022/12/31 05:44:10;;;;;;;1.10;0.80;;;;;;;12.79;100.00;98200.16;2601075;28;20104;-84
2022/12/31 05:45:26;;;;;;;1.10;0.95;;;;;;;12.84;100.00;98206.06;2603132;28;20057;-85
2022/12/31 05:46:42;;;;;;;0.77;0.60;;;;;;;12.71;100.00;98216.25;2603353;28;20052;-84
2022/12/31 05:47:57;;;;;;;1.45;0.82;;;;;;;12.75;100.00;98224.88;2600210;28;20050;-85
2022/12/31 05:49:13;;;;;;;0.80;0.68;;;;;;;12.88;100.00;98225.19;2601735;28;20045;-85
2022/12/31 05:50:29;;;;;;;0.95;0.80;;;;;;;12.96;100.00;98219.63;2603267;28;20470;-86
2022/12/31 05:51:44;;;;;;;1.25;0.82;;;;;;;13.00;100.00;98208.09;2600116;28;20057;-86
2022/12/31 05:53:00;;;;;;;1.70;1.02;;;;;;;13.07;100.00;98213.94;2601617;28;20079;-86
2022/12/31 05:54:16;;;;;;;1.60;0.75;;;;;;;13.06;100.00;98217.47;2601522;28;20342;-86
2022/12/31 05:55:31;;;;;;;0.88;0.80;;;;;;;13.12;100.00;98212.81;2600803;28;20057;-85
2022/12/31 05:56:47;;;;;;;0.70;0.70;;;;;;;13.46;100.00;98212.34;2601973;28;20049;-86
2022/12/31 05:58:02;;;;;;;1.00;0.80;;;;;;;13.24;100.00;98213.22;2600862;28;20045;-85
2022/12/31 05:59:18;;;;;;;1.13;0.80;;;;;;;13.17;100.00;98222.31;2603085;28;20045;-85
2022/12/31 06:00:34;;;;;;;0.80;0.70;;;;;;;13.36;100.00;98217.94;2599896;28;20061;-86
2022/12/31 06:01:50;;;;;;;0.82;0.70;;;;;;;13.18;100.00;98234.53;2601895;28;20049;-88
2022/12/31 06:03:05;;;;;;;1.40;1.10;;;;;;;13.30;100.00;98222.63;2599977;28;20080;-86
2022/12/31 06:04:21;;;;;;;1.20;1.00;;;;;;;13.23;100.00;98224.66;2600828;28;20085;-87
2022/12/31 06:05:41;;;;;;;1.27;0.90;;;;;;;12.94;100.00;98235.47;2601662;28;20144;-85
2022/12/31 06:06:57;;;;;;;1.20;0.82;;;;;;;12.97;100.00;98230.09;2601535;28;20144;-86
2022/12/31 06:08:12;;;;;;;0.73;0.60;;;;;;;13.06;100.00;98228.84;2602738;28;20493;-88
2022/12/31 06:09:28;;;;;;;0.85;0.85;;;;;;;13.13;100.00;98222.44;2600933;28;20077;-87
2022/12/31 06:10:43;;;;;;;0.65;0.50;;;;;;;12.99;100.00;98222.13;2601423;28;20053;-86
2022/12/31 06:11:59;;;;;;;1.10;1.00;;;;;;;12.82;100.00;98242.06;2599257;28;20053;-85
2022/12/31 06:13:14;;;;;;;2.67;0.98;;;;;;;12.84;100.00;98244.66;2599732;28;20065;-86
2022/12/31 06:14:30;;;;;;;0.80;0.80;;;;;;;12.83;100.00;98251.66;2600508;28;20053;-86
2022/12/31 06:15:46;;;;;;;0.82;0.70;;;;;;;12.90;100.00;98241.75;2602695;28;20543;-85